sensor_id;sensor_type;location;lat;lon;timestamp;pressure;altitude;pressure_sealevel;temperature;humidity
65758;BME280;52495;52.208;5.158;2023-04-15T00:00:24;100819.69;;;9.96;58.71
65758;BME280;52495;52.208;5.158;2023-04-15T00:02:51;100816.31;;;9.91;58.25
65758;BME280;52495;52.208;5.158;2023-04-15T00:05:18;100816.41;;;9.86;58.91
65758;BME280;52495;52.208;5.158;2023-04-15T00:07:45;100819.69;;;9.96;58.83
65758;BME280;52495;52.208;5.158;2023-04-15T00:10:17;100822.31;;;9.93;58.32
65758;BME280;52495;52.208;5.158;2023-04-15T00:12:43;100820.59;;;9.92;58.16
65758;BME280;52495;52.208;5.158;2023-04-15T00:15:10;100822.22;;;9.99;58.41
65758;BME280;52495;52.208;5.158;2023-04-15T00:17:37;100820.66;;;9.90;58.82
65758;BME280;52495;52.208;5.158;2023-04-15T00:20:05;100819.81;;;9.90;58.67
65758;BME280;52495;52.208;5.158;2023-04-15T00:22:32;100816.16;;;10.03;58.04
65758;BME280;52495;52.208;5.158;2023-04-15T00:24:59;100823.03;;;10.04;58.57
65758;BME280;52495;52.208;5.158;2023-04-15T00:27:27;100822.31;;;9.93;58.65
65758;BME280;52495;52.208;5.158;2023-04-15T00:29:55;100818.91;;;9.92;58.77
65758;BME280;52495;52.208;5.158;2023-04-15T00:32:21;100811.13;;;9.94;58.79
65758;BME280;52495;52.208;5.158;2023-04-15T00:34:48;100818.22;;;9.79;58.81
65758;BME280;52495;52.208;5.158;2023-04-15T00:37:16;100814.84;;;9.74;59.45
65758;BME280;52495;52.208;5.158;2023-04-15T00:39:42;100814.03;;;9.72;60.07
65758;BME280;52495;52.208;5.158;2023-04-15T00:42:09;100815.59;;;9.82;59.74
65758;BME280;52495;52.208;5.158;2023-04-15T00:44:37;100816.63;;;9.70;60.31
65758;BME280;52495;52.208;5.158;2023-04-15T00:47:04;100826.09;;;9.70;59.93
65758;BME280;52495;52.208;5.158;2023-04-15T00:49:31;100821.91;;;9.61;60.49
65758;BME280;52495;52.208;5.158;2023-04-15T00:51:58;100823.56;;;9.67;59.95
65758;BME280;52495;52.208;5.158;2023-04-15T00:54:25;100828.81;;;9.57;61.06
65758;BME280;52495;52.208;5.158;2023-04-15T00:56:52;100825.38;;;9.60;61.44
65758;BME280;52495;52.208;5.158;2023-04-15T00:59:19;100830.59;;;9.55;61.17
65758;BME280;52495;52.208;5.158;2023-04-15T01:01:47;100820.38;;;9.46;61.47
65758;BME280;52495;52.208;5.158;2023-04-15T01:04:14;100820.31;;;9.52;61.01
65758;BME280;52495;52.208;5.158;2023-04-15T01:06:41;100822.13;;;9.46;60.79
65758;BME280;52495;52.208;5.158;2023-04-15T01:09:09;100821.19;;;9.51;60.57
65758;BME280;52495;52.208;5.158;2023-04-15T01:11:37;100822.97;;;9.48;61.28
65758;BME280;52495;52.208;5.158;2023-04-15T01:14:08;100822.22;;;9.38;61.91
65758;BME280;52495;52.208;5.158;2023-04-15T01:16:35;100822.28;;;9.32;61.62
65758;BME280;52495;52.208;5.158;2023-04-15T01:19:07;100824.91;;;9.29;62.62
65758;BME280;52495;52.208;5.158;2023-04-15T01:21:36;100820.63;;;9.29;61.45
65758;BME280;52495;52.208;5.158;2023-04-15T01:24:08;100818.91;;;9.28;62.41
65758;BME280;52495;52.208;5.158;2023-04-15T01:26:36;100824.03;;;9.30;62.34
65758;BME280;52495;52.208;5.158;2023-04-15T01:29:06;100828.28;;;9.32;61.79
65758;BME280;52495;52.208;5.158;2023-04-15T01:31:33;100824.16;;;9.19;62.48
65758;BME280;52495;52.208;5.158;2023-04-15T01:34:00;100837.16;;;9.08;63.17
65758;BME280;52495;52.208;5.158;2023-04-15T01:36:27;100830.38;;;8.99;63.60
65758;BME280;52495;52.208;5.158;2023-04-15T01:38:55;100832.94;;;8.99;63.59
65758;BME280;52495;52.208;5.158;2023-04-15T01:41:24;100838.97;;;8.98;64.03
65758;BME280;52495;52.208;5.158;2023-04-15T01:43:53;100832.88;;;9.05;63.35
65758;BME280;52495;52.208;5.158;2023-04-15T01:46:20;100838.94;;;9.01;64.41
65758;BME280;52495;52.208;5.158;2023-04-15T01:48:47;100839.03;;;8.93;64.43
65758;BME280;52495;52.208;5.158;2023-04-15T01:51:13;100834.75;;;8.89;65.34
65758;BME280;52495;52.208;5.158;2023-04-15T01:53:41;100840.78;;;8.88;64.89
65758;BME280;52495;52.208;5.158;2023-04-15T01:56:07;100837.34;;;8.89;64.83
65758;BME280;52495;52.208;5.158;2023-04-15T01:58:34;100835.63;;;8.90;65.58
65758;BME280;52495;52.208;5.158;2023-04-15T02:01:03;100840.06;;;8.78;66.35
65758;BME280;52495;52.208;5.158;2023-04-15T02:03:30;100840.00;;;8.81;65.76
65758;BME280;52495;52.208;5.158;2023-04-15T02:05:57;100837.47;;;8.77;66.69
65758;BME280;52495;52.208;5.158;2023-04-15T02:08:24;100843.50;;;8.74;66.41
65758;BME280;52495;52.208;5.158;2023-04-15T02:10:51;100844.44;;;8.67;67.08
65758;BME280;52495;52.208;5.158;2023-04-15T02:13:18;100839.22;;;8.73;66.64
65758;BME280;52495;52.208;5.158;2023-04-15T02:15:48;100840.13;;;8.69;66.61
65758;BME280;52495;52.208;5.158;2023-04-15T02:18:18;100846.19;;;8.63;67.09
65758;BME280;52495;52.208;5.158;2023-04-15T02:20:46;100841.00;;;8.65;66.97
65758;BME280;52495;52.208;5.158;2023-04-15T02:23:13;100844.53;;;8.58;67.54
65758;BME280;52495;52.208;5.158;2023-04-15T02:25:42;100846.25;;;8.54;68.01
65758;BME280;52495;52.208;5.158;2023-04-15T02:28:09;100843.63;;;8.62;67.42
65758;BME280;52495;52.208;5.158;2023-04-15T02:30:36;100851.41;;;8.54;68.39
65758;BME280;52495;52.208;5.158;2023-04-15T02:33:03;100860.81;;;8.57;68.14
65758;BME280;52495;52.208;5.158;2023-04-15T02:35:31;100859.94;;;8.61;68.23
65758;BME280;52495;52.208;5.158;2023-04-15T02:37:58;100870.28;;;8.55;68.34
65758;BME280;52495;52.208;5.158;2023-04-15T02:40:26;100864.31;;;8.49;69.00
65758;BME280;52495;52.208;5.158;2023-04-15T02:42:53;100868.56;;;8.47;70.01
65758;BME280;52495;52.208;5.158;2023-04-15T02:45:20;100871.13;;;8.55;69.57
65758;BME280;52495;52.208;5.158;2023-04-15T02:47:48;100875.47;;;8.50;69.63
65758;BME280;52495;52.208;5.158;2023-04-15T02:50:15;100874.59;;;8.46;70.29
65758;BME280;52495;52.208;5.158;2023-04-15T02:52:43;100882.34;;;8.48;69.77
65758;BME280;52495;52.208;5.158;2023-04-15T02:55:10;100884.91;;;8.48;70.64
65758;BME280;52495;52.208;5.158;2023-04-15T02:57:37;100883.19;;;8.44;70.67
65758;BME280;52495;52.208;5.158;2023-04-15T03:00:08;100887.44;;;8.46;70.27
65758;BME280;52495;52.208;5.158;2023-04-15T03:02:39;100884.91;;;8.42;70.62
65758;BME280;52495;52.208;5.158;2023-04-15T03:05:10;100891.78;;;8.43;70.82
65758;BME280;52495;52.208;5.158;2023-04-15T03:07:38;100889.19;;;8.50;70.44
65758;BME280;52495;52.208;5.158;2023-04-15T03:10:08;100894.31;;;8.47;71.06
65758;BME280;52495;52.208;5.158;2023-04-15T03:12:35;100889.19;;;8.43;70.76
65758;BME280;52495;52.208;5.158;2023-04-15T03:15:02;100888.38;;;8.42;70.63
65758;BME280;52495;52.208;5.158;2023-04-15T03:17:36;100889.28;;;8.37;71.37
65758;BME280;52495;52.208;5.158;2023-04-15T03:20:04;100886.69;;;8.32;72.36
65758;BME280;52495;52.208;5.158;2023-04-15T03:22:31;100894.41;;;8.35;72.05
65758;BME280;52495;52.208;5.158;2023-04-15T03:24:58;100897.00;;;8.33;71.80
65758;BME280;52495;52.208;5.158;2023-04-15T03:27:27;100899.56;;;8.32;72.09
65758;BME280;52495;52.208;5.158;2023-04-15T03:29:58;100899.59;;;8.29;72.74
65758;BME280;52495;52.208;5.158;2023-04-15T03:32:26;100902.19;;;8.26;72.71
65758;BME280;52495;52.208;5.158;2023-04-15T03:34:53;100909.06;;;8.24;73.13
65758;BME280;52495;52.208;5.158;2023-04-15T03:37:20;100905.69;;;8.14;74.47
65758;BME280;52495;52.208;5.158;2023-04-15T03:39:46;100913.44;;;8.11;74.90
65758;BME280;52495;52.208;5.158;2023-04-15T03:42:13;100915.97;;;8.12;74.94
65758;BME280;52495;52.208;5.158;2023-04-15T03:44:41;100910.00;;;8.12;75.03
65758;BME280;52495;52.208;5.158;2023-04-15T03:47:08;100919.44;;;8.11;75.80
65758;BME280;52495;52.208;5.158;2023-04-15T03:49:35;100921.13;;;8.12;75.22
65758;BME280;52495;52.208;5.158;2023-04-15T03:52:02;100923.69;;;8.17;74.82
65758;BME280;52495;52.208;5.158;2023-04-15T03:54:28;100928.03;;;8.04;75.35
65758;BME280;52495;52.208;5.158;2023-04-15T03:56:55;100926.34;;;8.01;76.01
65758;BME280;52495;52.208;5.158;2023-04-15T03:59:22;100930.63;;;8.01;76.13
65758;BME280;52495;52.208;5.158;2023-04-15T04:01:50;100937.44;;;8.07;75.46
65758;BME280;52495;52.208;5.158;2023-04-15T04:04:17;100936.66;;;7.98;75.51
65758;BME280;52495;52.208;5.158;2023-04-15T04:06:44;100937.53;;;7.91;76.51
65758;BME280;52495;52.208;5.158;2023-04-15T04:09:10;100942.66;;;7.94;76.12
65758;BME280;52495;52.208;5.158;2023-04-15T04:11:37;100948.72;;;7.84;76.97
65758;BME280;52495;52.208;5.158;2023-04-15T04:14:04;100949.56;;;7.78;78.37
65758;BME280;52495;52.208;5.158;2023-04-15T04:16:31;100953.00;;;7.75;78.46
65758;BME280;52495;52.208;5.158;2023-04-15T04:18:59;100957.28;;;7.78;78.04
65758;BME280;52495;52.208;5.158;2023-04-15T04:21:26;100954.69;;;7.78;78.16
65758;BME280;52495;52.208;5.158;2023-04-15T04:23:53;100959.00;;;7.74;78.74
65758;BME280;52495;52.208;5.158;2023-04-15T04:26:21;100955.59;;;7.72;78.49
65758;BME280;52495;52.208;5.158;2023-04-15T04:28:47;100959.03;;;7.70;78.72
65758;BME280;52495;52.208;5.158;2023-04-15T04:31:15;100964.19;;;7.67;79.96
65758;BME280;52495;52.208;5.158;2023-04-15T04:33:41;100968.44;;;7.69;79.16
65758;BME280;52495;52.208;5.158;2023-04-15T04:36:09;100964.19;;;7.67;79.27
65758;BME280;52495;52.208;5.158;2023-04-15T04:38:36;100973.63;;;7.60;79.94
65758;BME280;52495;52.208;5.158;2023-04-15T04:41:03;100981.34;;;7.57;80.88
65758;BME280;52495;52.208;5.158;2023-04-15T04:43:30;100990.75;;;7.64;79.76
65758;BME280;52495;52.208;5.158;2023-04-15T04:45:57;100992.47;;;7.56;80.75
65758;BME280;52495;52.208;5.158;2023-04-15T04:48:23;100994.19;;;7.54;80.78
65758;BME280;52495;52.208;5.158;2023-04-15T04:50:51;101002.75;;;7.59;80.24
65758;BME280;52495;52.208;5.158;2023-04-15T04:53:19;101008.75;;;7.61;80.57
65758;BME280;52495;52.208;5.158;2023-04-15T04:55:46;101008.75;;;7.58;80.49
65758;BME280;52495;52.208;5.158;2023-04-15T04:58:13;101011.31;;;7.59;80.07
65758;BME280;52495;52.208;5.158;2023-04-15T05:00:40;101009.59;;;7.58;80.06
65758;BME280;52495;52.208;5.158;2023-04-15T05:03:07;101019.00;;;7.58;80.38
65758;BME280;52495;52.208;5.158;2023-04-15T05:05:34;101027.59;;;7.55;79.97
65758;BME280;52495;52.208;5.158;2023-04-15T05:08:01;101031.03;;;7.54;80.88
65758;BME280;52495;52.208;5.158;2023-04-15T05:10:29;101025.03;;;7.58;80.98
65758;BME280;52495;52.208;5.158;2023-04-15T05:12:56;101032.69;;;7.65;80.87
65758;BME280;52495;52.208;5.158;2023-04-15T05:15:22;101038.72;;;7.56;81.06
65758;BME280;52495;52.208;5.158;2023-04-15T05:17:49;101032.72;;;7.57;81.22
65758;BME280;52495;52.208;5.158;2023-04-15T05:20:16;101038.72;;;7.45;82.44
65758;BME280;52495;52.208;5.158;2023-04-15T05:22:43;101054.13;;;7.53;82.13
65758;BME280;52495;52.208;5.158;2023-04-15T05:25:10;101050.72;;;7.52;82.52
65758;BME280;52495;52.208;5.158;2023-04-15T05:27:38;101055.00;;;7.47;83.00
65758;BME280;52495;52.208;5.158;2023-04-15T05:30:06;101056.72;;;7.42;82.97
65758;BME280;52495;52.208;5.158;2023-04-15T05:32:33;101060.16;;;7.32;83.39
65758;BME280;52495;52.208;5.158;2023-04-15T05:35:00;101066.13;;;7.43;83.00
65758;BME280;52495;52.208;5.158;2023-04-15T05:37:27;101070.41;;;7.44;82.90
65758;BME280;52495;52.208;5.158;2023-04-15T05:39:54;101081.53;;;7.43;82.72
65758;BME280;52495;52.208;5.158;2023-04-15T05:42:21;101082.41;;;7.50;83.52
65758;BME280;52495;52.208;5.158;2023-04-15T05:44:49;101084.97;;;7.40;83.68
65758;BME280;52495;52.208;5.158;2023-04-15T05:47:16;101088.41;;;7.49;83.44
65758;BME280;52495;52.208;5.158;2023-04-15T05:49:43;101084.09;;;7.43;83.08
65758;BME280;52495;52.208;5.158;2023-04-15T05:52:09;101091.84;;;7.40;83.83
65758;BME280;52495;52.208;5.158;2023-04-15T05:54:36;101103.81;;;7.52;83.90
65758;BME280;52495;52.208;5.158;2023-04-15T05:57:03;101104.69;;;7.51;83.68
65758;BME280;52495;52.208;5.158;2023-04-15T05:59:30;101104.66;;;7.54;83.95
65758;BME280;52495;52.208;5.158;2023-04-15T06:01:58;101114.97;;;7.51;84.46
65758;BME280;52495;52.208;5.158;2023-04-15T06:04:25;101114.94;;;7.62;83.55
65758;BME280;52495;52.208;5.158;2023-04-15T06:06:52;101119.25;;;7.67;83.66
65758;BME280;52495;52.208;5.158;2023-04-15T06:09:19;101119.22;;;7.64;84.63
65758;BME280;52495;52.208;5.158;2023-04-15T06:11:46;101138.06;;;7.77;83.64
65758;BME280;52495;52.208;5.158;2023-04-15T06:14:12;101134.63;;;7.86;83.41
65758;BME280;52495;52.208;5.158;2023-04-15T06:16:39;101138.91;;;7.74;83.89
65758;BME280;52495;52.208;5.158;2023-04-15T06:19:08;101147.47;;;7.86;83.71
65758;BME280;52495;52.208;5.158;2023-04-15T06:21:35;101149.19;;;7.87;83.44
65758;BME280;52495;52.208;5.158;2023-04-15T06:24:02;101156.88;;;7.95;83.39
65758;BME280;52495;52.208;5.158;2023-04-15T06:26:29;101152.63;;;7.90;83.81
65758;BME280;52495;52.208;5.158;2023-04-15T06:28:56;101158.63;;;7.94;83.67
65758;BME280;52495;52.208;5.158;2023-04-15T06:31:22;101156.03;;;7.97;83.82
65758;BME280;52495;52.208;5.158;2023-04-15T06:33:49;101156.03;;;8.05;84.26
65758;BME280;52495;52.208;5.158;2023-04-15T06:36:18;101162.88;;;8.06;83.96
65758;BME280;52495;52.208;5.158;2023-04-15T06:38:45;101171.47;;;8.00;84.26
65758;BME280;52495;52.208;5.158;2023-04-15T06:41:11;101174.00;;;8.25;83.74
65758;BME280;52495;52.208;5.158;2023-04-15T06:43:38;101173.13;;;8.23;83.97
65758;BME280;52495;52.208;5.158;2023-04-15T06:46:05;101173.16;;;8.18;84.01
65758;BME280;52495;52.208;5.158;2023-04-15T06:48:32;101175.72;;;8.25;83.95
65758;BME280;52495;52.208;5.158;2023-04-15T06:50:59;101186.88;;;8.27;84.19
65758;BME280;52495;52.208;5.158;2023-04-15T06:53:27;101188.53;;;8.49;83.46
65758;BME280;52495;52.208;5.158;2023-04-15T06:55:54;101197.13;;;8.48;83.59
65758;BME280;52495;52.208;5.158;2023-04-15T06:58:21;101202.19;;;8.72;82.52
65758;BME280;52495;52.208;5.158;2023-04-15T07:00:48;101199.66;;;8.62;83.11
65758;BME280;52495;52.208;5.158;2023-04-15T07:03:15;101206.50;;;8.65;83.36
65758;BME280;52495;52.208;5.158;2023-04-15T07:05:42;101204.72;;;8.83;82.43
65758;BME280;52495;52.208;5.158;2023-04-15T07:08:09;101215.81;;;9.02;81.25
65758;BME280;52495;52.208;5.158;2023-04-15T07:10:38;101210.59;;;9.11;80.32
65758;BME280;52495;52.208;5.158;2023-04-15T07:13:04;101222.69;;;9.00;80.83
65758;BME280;52495;52.208;5.158;2023-04-15T07:15:33;101218.31;;;9.14;80.46
65758;BME280;52495;52.208;5.158;2023-04-15T07:18:00;101222.56;;;9.26;78.99
65758;BME280;52495;52.208;5.158;2023-04-15T07:20:27;101223.44;;;9.20;78.91
65758;BME280;52495;52.208;5.158;2023-04-15T07:22:54;101228.47;;;9.44;78.35
65758;BME280;52495;52.208;5.158;2023-04-15T07:25:20;101223.34;;;9.37;77.38
65758;BME280;52495;52.208;5.158;2023-04-15T07:27:49;101235.28;;;9.52;77.00
65758;BME280;52495;52.208;5.158;2023-04-15T07:30:15;101236.03;;;9.70;75.99
65758;BME280;52495;52.208;5.158;2023-04-15T07:32:42;101242.84;;;9.76;75.33
65758;BME280;52495;52.208;5.158;2023-04-15T07:35:09;101250.56;;;9.80;75.59
65758;BME280;52495;52.208;5.158;2023-04-15T07:37:36;101247.06;;;9.86;73.99
65758;BME280;52495;52.208;5.158;2023-04-15T07:40:03;101250.50;;;9.90;74.46
65758;BME280;52495;52.208;5.158;2023-04-15T07:42:32;101253.84;;;10.01;74.14
65758;BME280;52495;52.208;5.158;2023-04-15T07:45:00;101257.19;;;10.12;72.27
65758;BME280;52495;52.208;5.158;2023-04-15T07:47:27;101258.81;;;10.23;72.51
65758;BME280;52495;52.208;5.158;2023-04-15T07:49:54;101261.41;;;10.23;73.24
65758;BME280;52495;52.208;5.158;2023-04-15T07:52:21;101262.19;;;10.29;72.22
65758;BME280;52495;52.208;5.158;2023-04-15T07:54:47;101263.78;;;10.47;70.96
65758;BME280;52495;52.208;5.158;2023-04-15T07:57:14;101270.53;;;10.59;69.85
65758;BME280;52495;52.208;5.158;2023-04-15T07:59:41;101278.25;;;10.66;70.35
65758;BME280;52495;52.208;5.158;2023-04-15T08:02:10;101280.75;;;10.73;70.49
65758;BME280;52495;52.208;5.158;2023-04-15T08:04:37;101293.50;;;10.86;69.57
65758;BME280;52495;52.208;5.158;2023-04-15T08:07:05;101297.59;;;11.05;68.06
65758;BME280;52495;52.208;5.158;2023-04-15T08:09:32;101294.16;;;11.03;67.56
65758;BME280;52495;52.208;5.158;2023-04-15T08:11:59;101304.69;;;10.88;68.44
65758;BME280;52495;52.208;5.158;2023-04-15T08:14:26;101302.06;;;10.89;68.70
65758;BME280;52495;52.208;5.158;2023-04-15T08:16:53;101299.47;;;10.92;69.07
65758;BME280;52495;52.208;5.158;2023-04-15T08:19:21;101307.03;;;11.08;68.11
65758;BME280;52495;52.208;5.158;2023-04-15T08:21:48;101313.75;;;11.21;67.13
65758;BME280;52495;52.208;5.158;2023-04-15T08:24:15;101306.00;;;11.23;67.79
65758;BME280;52495;52.208;5.158;2023-04-15T08:26:42;101312.88;;;11.24;67.48
65758;BME280;52495;52.208;5.158;2023-04-15T08:29:09;101311.84;;;11.37;66.50
65758;BME280;52495;52.208;5.158;2023-04-15T08:31:35;101309.13;;;11.47;66.22
65758;BME280;52495;52.208;5.158;2023-04-15T08:34:02;101316.94;;;11.42;66.96
65758;BME280;52495;52.208;5.158;2023-04-15T08:36:31;101311.59;;;11.56;67.01
65758;BME280;52495;52.208;5.158;2023-04-15T08:38:58;101314.91;;;11.64;66.27
65758;BME280;52495;52.208;5.158;2023-04-15T08:41:26;101326.72;;;11.86;65.04
65758;BME280;52495;52.208;5.158;2023-04-15T08:43:57;101336.00;;;12.01;62.54
65758;BME280;52495;52.208;5.158;2023-04-15T08:46:24;101331.69;;;12.01;62.33
65758;BME280;52495;52.208;5.158;2023-04-15T08:48:55;101332.59;;;11.95;63.37
65758;BME280;52495;52.208;5.158;2023-04-15T08:51:23;101334.28;;;12.01;63.41
65758;BME280;52495;52.208;5.158;2023-04-15T08:53:52;101341.88;;;12.12;63.00
65758;BME280;52495;52.208;5.158;2023-04-15T08:56:23;101337.47;;;12.19;61.40
65758;BME280;52495;52.208;5.158;2023-04-15T08:58:51;101347.78;;;12.20;60.28
65758;BME280;52495;52.208;5.158;2023-04-15T09:01:18;101359.78;;;12.24;58.47
65758;BME280;52495;52.208;5.158;2023-04-15T09:03:47;101361.78;;;12.05;60.12
65758;BME280;52495;52.208;5.158;2023-04-15T09:06:15;101357.41;;;12.12;60.18
65758;BME280;52495;52.208;5.158;2023-04-15T09:08:42;101368.53;;;12.17;58.82
65758;BME280;52495;52.208;5.158;2023-04-15T09:11:10;101373.66;;;12.20;58.04
65758;BME280;52495;52.208;5.158;2023-04-15T09:13:37;101379.72;;;12.19;58.40
65758;BME280;52495;52.208;5.158;2023-04-15T09:16:05;101371.81;;;12.27;58.12
65758;BME280;52495;52.208;5.158;2023-04-15T09:18:35;101372.63;;;12.32;58.12
65758;BME280;52495;52.208;5.158;2023-04-15T09:21:05;101382.94;;;12.35;57.52
65758;BME280;52495;52.208;5.158;2023-04-15T09:23:34;101382.19;;;12.27;58.81
65758;BME280;52495;52.208;5.158;2023-04-15T09:26:01;101381.06;;;12.43;57.40
65758;BME280;52495;52.208;5.158;2023-04-15T09:28:29;101389.66;;;12.45;56.72
65758;BME280;52495;52.208;5.158;2023-04-15T09:30:57;101387.25;;;12.35;57.72
65758;BME280;52495;52.208;5.158;2023-04-15T09:33:24;101394.81;;;12.49;57.88
65758;BME280;52495;52.208;5.158;2023-04-15T09:35:59;101391.28;;;12.53;57.66
65758;BME280;52495;52.208;5.158;2023-04-15T09:38:26;101393.75;;;12.60;56.58
65758;BME280;52495;52.208;5.158;2023-04-15T09:40:57;101406.66;;;12.64;56.05
65758;BME280;52495;52.208;5.158;2023-04-15T09:43:36;101404.13;;;12.59;56.94
65758;BME280;52495;52.208;5.158;2023-04-15T09:46:04;101407.44;;;12.67;56.78
65758;BME280;52495;52.208;5.158;2023-04-15T09:48:31;101413.44;;;12.71;57.26
65758;BME280;52495;52.208;5.158;2023-04-15T09:50:58;101416.75;;;12.79;57.32
65758;BME280;52495;52.208;5.158;2023-04-15T09:53:26;101417.84;;;12.64;57.65
65758;BME280;52495;52.208;5.158;2023-04-15T09:55:57;101423.13;;;12.58;58.48
65758;BME280;52495;52.208;5.158;2023-04-15T09:58:26;101418.03;;;12.53;58.81
65758;BME280;52495;52.208;5.158;2023-04-15T10:00:56;101425.63;;;12.64;58.21
65758;BME280;52495;52.208;5.158;2023-04-15T10:03:25;101430.84;;;12.63;58.24
65758;BME280;52495;52.208;5.158;2023-04-15T10:05:54;101426.59;;;12.57;57.04
65758;BME280;52495;52.208;5.158;2023-04-15T10:08:23;101424.03;;;12.55;58.58
65758;BME280;52495;52.208;5.158;2023-04-15T10:10:50;101427.31;;;12.67;59.42
65758;BME280;52495;52.208;5.158;2023-04-15T10:13:19;101430.41;;;12.87;58.23
65758;BME280;52495;52.208;5.158;2023-04-15T10:15:50;101429.59;;;12.85;59.94
65758;BME280;52495;52.208;5.158;2023-04-15T10:18:20;101445.03;;;12.92;60.19
65758;BME280;52495;52.208;5.158;2023-04-15T10:20:49;101437.13;;;12.99;60.00
65758;BME280;52495;52.208;5.158;2023-04-15T10:23:17;101438.00;;;12.98;60.05
65758;BME280;52495;52.208;5.158;2023-04-15T10:25:45;101449.59;;;12.77;60.24
65758;BME280;52495;52.208;5.158;2023-04-15T10:28:14;101440.97;;;12.78;60.76
65758;BME280;52495;52.208;5.158;2023-04-15T10:30:42;101448.72;;;12.78;60.66
65758;BME280;52495;52.208;5.158;2023-04-15T10:33:10;101467.78;;;12.74;60.48
65758;BME280;52495;52.208;5.158;2023-04-15T10:35:39;101456.44;;;12.81;61.41
65758;BME280;52495;52.208;5.158;2023-04-15T10:38:30;101469.53;;;12.72;61.83
65758;BME280;52495;52.208;5.158;2023-04-15T10:41:11;101470.53;;;12.63;61.84
65758;BME280;52495;52.208;5.158;2023-04-15T10:43:38;101470.72;;;12.52;62.29
65758;BME280;52495;52.208;5.158;2023-04-15T10:46:05;101468.16;;;12.51;63.12
65758;BME280;52495;52.208;5.158;2023-04-15T10:48:32;101467.78;;;12.72;62.26
65758;BME280;52495;52.208;5.158;2023-04-15T10:51:01;101481.47;;;12.84;61.75
65758;BME280;52495;52.208;5.158;2023-04-15T10:53:28;101483.34;;;12.72;61.83
65758;BME280;52495;52.208;5.158;2023-04-15T10:55:56;101486.97;;;12.62;62.04
65758;BME280;52495;52.208;5.158;2023-04-15T10:58:24;101482.66;;;12.63;61.47
65758;BME280;52495;52.208;5.158;2023-04-15T11:00:52;101481.53;;;12.79;62.40
65758;BME280;52495;52.208;5.158;2023-04-15T11:03:35;101490.06;;;12.84;61.58
65758;BME280;52495;52.208;5.158;2023-04-15T11:06:05;101487.34;;;12.92;61.34
65758;BME280;52495;52.208;5.158;2023-04-15T11:08:55;101488.00;;;13.05;62.31
65758;BME280;52495;52.208;5.158;2023-04-15T11:14:29;101496.41;;;13.19;62.27
65758;BME280;52495;52.208;5.158;2023-04-15T11:16:56;101495.81;;;13.03;62.84
65758;BME280;52495;52.208;5.158;2023-04-15T11:19:23;101494.84;;;13.09;63.21
65758;BME280;52495;52.208;5.158;2023-04-15T11:21:51;101484.31;;;13.18;62.07
65758;BME280;52495;52.208;5.158;2023-04-15T11:24:23;101491.94;;;13.28;62.10
65758;BME280;52495;52.208;5.158;2023-04-15T11:26:56;101491.13;;;13.24;61.26
65758;BME280;52495;52.208;5.158;2023-04-15T11:29:29;101502.59;;;13.12;60.88
65758;BME280;52495;52.208;5.158;2023-04-15T11:32:04;101507.22;;;12.93;60.15
65758;BME280;52495;52.208;5.158;2023-04-15T11:34:31;101508.28;;;12.80;60.57
65758;BME280;52495;52.208;5.158;2023-04-15T11:37:03;101514.84;;;13.02;60.70
65758;BME280;52495;52.208;5.158;2023-04-15T11:39:30;101522.19;;;13.27;59.37
65758;BME280;52495;52.208;5.158;2023-04-15T11:41:57;101526.34;;;13.36;59.67
65758;BME280;52495;52.208;5.158;2023-04-15T11:44:23;101535.28;;;13.19;59.43
65758;BME280;52495;52.208;5.158;2023-04-15T11:46:50;101528.81;;;12.92;60.27
65758;BME280;52495;52.208;5.158;2023-04-15T11:49:27;101532.22;;;12.97;60.32
65758;BME280;52495;52.208;5.158;2023-04-15T11:51:54;101541.06;;;12.82;60.06
65758;BME280;52495;52.208;5.158;2023-04-15T11:54:22;101550.50;;;12.88;59.84
65758;BME280;52495;52.208;5.158;2023-04-15T11:56:50;101542.75;;;12.86;58.51
65758;BME280;52495;52.208;5.158;2023-04-15T11:59:17;101539.06;;;13.01;58.81
65758;BME280;52495;52.208;5.158;2023-04-15T12:01:44;101536.47;;;13.00;58.72
65758;BME280;52495;52.208;5.158;2023-04-15T12:04:12;101545.28;;;12.89;59.40
65758;BME280;52495;52.208;5.158;2023-04-15T12:06:43;101578.03;;;12.95;59.70
65758;BME280;52495;52.208;5.158;2023-04-15T12:09:11;101568.16;;;12.61;60.25
65758;BME280;52495;52.208;5.158;2023-04-15T12:11:41;101556.69;;;12.78;60.26
65758;BME280;52495;52.208;5.158;2023-04-15T12:14:12;101570.88;;;13.10;59.61
65758;BME280;52495;52.208;5.158;2023-04-15T12:16:40;101570.06;;;13.08;60.00
65758;BME280;52495;52.208;5.158;2023-04-15T12:19:09;101569.25;;;13.04;60.19
65758;BME280;52495;52.208;5.158;2023-04-15T12:21:46;101567.53;;;13.03;60.96
65758;BME280;52495;52.208;5.158;2023-04-15T12:24:13;101574.34;;;13.10;60.49
65758;BME280;52495;52.208;5.158;2023-04-15T12:26:46;101566.81;;;12.95;61.16
65758;BME280;52495;52.208;5.158;2023-04-15T12:29:15;101573.69;;;12.97;61.20
65758;BME280;52495;52.208;5.158;2023-04-15T12:31:50;101577.09;;;12.99;60.92
65758;BME280;52495;52.208;5.158;2023-04-15T12:34:18;101579.78;;;12.95;61.39
65758;BME280;52495;52.208;5.158;2023-04-15T12:36:51;101576.16;;;13.05;61.63
65758;BME280;52495;52.208;5.158;2023-04-15T12:39:21;101584.91;;;12.98;61.32
65758;BME280;52495;52.208;5.158;2023-04-15T12:41:49;101584.63;;;13.15;61.68
65758;BME280;52495;52.208;5.158;2023-04-15T12:44:16;101590.91;;;13.01;61.36
65758;BME280;52495;52.208;5.158;2023-04-15T12:46:43;101590.03;;;13.01;61.19
65758;BME280;52495;52.208;5.158;2023-04-15T12:49:10;101589.28;;;12.94;61.34
65758;BME280;52495;52.208;5.158;2023-04-15T12:51:39;101593.69;;;12.89;61.50
65758;BME280;52495;52.208;5.158;2023-04-15T12:54:05;101588.59;;;12.83;62.35
65758;BME280;52495;52.208;5.158;2023-04-15T12:56:33;101616.44;;;12.67;62.47
65758;BME280;52495;52.208;5.158;2023-04-15T12:59:01;101613.00;;;12.65;62.61
65758;BME280;52495;52.208;5.158;2023-04-15T13:01:27;101610.41;;;12.65;62.40